sensor_id;sensor_type;location;lat;lon;timestamp;P1;durP1;ratioP1;P2;durP2;ratioP2
12719;SDS011;6424;48.520;11.228;2023-05-10T00:02:10;1.73;;;1.60;;
12719;SDS011;6424;48.520;11.228;2023-05-10T00:04:51;1.47;;;1.37;;
12719;SDS011;6424;48.520;11.228;2023-05-10T00:07:32;3.23;;;1.50;;
12719;SDS011;6424;48.520;11.228;2023-05-10T00:10:13;3.10;;;1.90;;
12719;SDS011;6424;48.520;11.228;2023-05-10T00:12:53;2.43;;;1.70;;
12719;SDS011;6424;48.520;11.228;2023-05-10T00:15:34;2.47;;;1.80;;
12719;SDS011;6424;48.520;11.228;2023-05-10T00:18:15;1.90;;;1.80;;
12719;SDS011;6424;48.520;11.228;2023-05-10T00:20:56;1.93;;;1.73;;
12719;SDS011;6424;48.520;11.228;2023-05-10T00:23:37;3.40;;;2.10;;
12719;SDS011;6424;48.520;11.228;2023-05-10T00:26:18;2.67;;;2.07;;
12719;SDS011;6424;48.520;11.228;2023-05-10T00:28:59;1.83;;;1.73;;
12719;SDS011;6424;48.520;11.228;2023-05-10T00:31:39;2.17;;;2.07;;
12719;SDS011;6424;48.520;11.228;2023-05-10T00:34:20;1.90;;;1.80;;
12719;SDS011;6424;48.520;11.228;2023-05-10T00:37:01;2.10;;;1.90;;
12719;SDS011;6424;48.520;11.228;2023-05-10T00:39:42;2.70;;;2.30;;
12719;SDS011;6424;48.520;11.228;2023-05-10T00:42:23;2.70;;;2.07;;
12719;SDS011;6424;48.520;11.228;2023-05-10T00:45:04;2.53;;;2.30;;
12719;SDS011;6424;48.520;11.228;2023-05-10T00:47:45;2.03;;;1.87;;
12719;SDS011;6424;48.520;11.228;2023-05-10T00:50:26;2.20;;;2.00;;
12719;SDS011;6424;48.520;11.228;2023-05-10T00:53:07;2.33;;;2.13;;
12719;SDS011;6424;48.520;11.228;2023-05-10T00:55:49;3.57;;;2.37;;
12719;SDS011;6424;48.520;11.228;2023-05-10T00:58:29;4.23;;;2.63;;
12719;SDS011;6424;48.520;11.228;2023-05-10T01:01:11;3.23;;;2.60;;
12719;SDS011;6424;48.520;11.228;2023-05-10T01:03:52;2.63;;;2.43;;
12719;SDS011;6424;48.520;11.228;2023-05-10T01:06:34;3.23;;;2.60;;
12719;SDS011;6424;48.520;11.228;2023-05-10T01:09:15;3.00;;;2.60;;
12719;SDS011;6424;48.520;11.228;2023-05-10T01:11:56;4.10;;;2.30;;
12719;SDS011;6424;48.520;11.228;2023-05-10T01:14:37;3.10;;;2.50;;
12719;SDS011;6424;48.520;11.228;2023-05-10T01:17:18;2.67;;;2.40;;
12719;SDS011;6424;48.520;11.228;2023-05-10T01:19:59;3.87;;;2.57;;
12719;SDS011;6424;48.520;11.228;2023-05-10T01:28:11;3.67;;;2.90;;
12719;SDS011;6424;48.520;11.228;2023-05-10T01:34:16;2.60;;;2.40;;
12719;SDS011;6424;48.520;11.228;2023-05-10T01:37:06;3.07;;;2.60;;
12719;SDS011;6424;48.520;11.228;2023-05-10T01:42:46;2.30;;;2.20;;
12719;SDS011;6424;48.520;11.228;2023-05-10T01:45:34;1.80;;;1.70;;
12719;SDS011;6424;48.520;11.228;2023-05-10T01:48:20;1.80;;;1.37;;
12719;SDS011;6424;48.520;11.228;2023-05-10T01:51:02;1.50;;;1.40;;
12719;SDS011;6424;48.520;11.228;2023-05-10T01:53:46;1.43;;;1.20;;
12719;SDS011;6424;48.520;11.228;2023-05-10T01:56:29;1.00;;;0.90;;
12719;SDS011;6424;48.520;11.228;2023-05-10T01:59:12;0.60;;;0.60;;
12719;SDS011;6424;48.520;11.228;2023-05-10T02:01:57;1.03;;;0.70;;
12719;SDS011;6424;48.520;11.228;2023-05-10T02:04:25;1.00;;;0.50;;
12719;SDS011;6424;48.520;11.228;2023-05-10T02:07:07;0.63;;;0.60;;
12719;SDS011;6424;48.520;11.228;2023-05-10T02:09:34;0.90;;;0.70;;
12719;SDS011;6424;48.520;11.228;2023-05-10T02:12:16;0.60;;;0.60;;
12719;SDS011;6424;48.520;11.228;2023-05-10T02:14:59;2.40;;;0.60;;
12719;SDS011;6424;48.520;11.228;2023-05-10T02:17:42;0.97;;;0.60;;
12719;SDS011;6424;48.520;11.228;2023-05-10T02:20:25;1.63;;;0.70;;
12719;SDS011;6424;48.520;11.228;2023-05-10T02:23:07;1.50;;;0.80;;
12719;SDS011;6424;48.520;11.228;2023-05-10T02:25:49;1.90;;;1.00;;
12719;SDS011;6424;48.520;11.228;2023-05-10T02:28:33;2.80;;;1.33;;
12719;SDS011;6424;48.520;11.228;2023-05-10T02:31:17;1.40;;;1.30;;
12719;SDS011;6424;48.520;11.228;2023-05-10T02:33:44;2.27;;;1.60;;
12719;SDS011;6424;48.520;11.228;2023-05-10T02:36:27;4.40;;;1.60;;
12719;SDS011;6424;48.520;11.228;2023-05-10T02:39:08;2.20;;;2.10;;
12719;SDS011;6424;48.520;11.228;2023-05-10T02:41:37;6.03;;;1.93;;
12719;SDS011;6424;48.520;11.228;2023-05-10T02:44:21;2.50;;;1.97;;
12719;SDS011;6424;48.520;11.228;2023-05-10T02:47:03;2.43;;;2.23;;
12719;SDS011;6424;48.520;11.228;2023-05-10T02:49:44;3.50;;;2.00;;
12719;SDS011;6424;48.520;11.228;2023-05-10T02:52:27;2.50;;;2.30;;
12719;SDS011;6424;48.520;11.228;2023-05-10T02:55:12;2.50;;;2.30;;
12719;SDS011;6424;48.520;11.228;2023-05-10T02:57:56;2.20;;;2.00;;
12719;SDS011;6424;48.520;11.228;2023-05-10T03:00:40;2.63;;;2.20;;
12719;SDS011;6424;48.520;11.228;2023-05-10T03:03:20;2.33;;;2.10;;
12719;SDS011;6424;48.520;11.228;2023-05-10T03:06:01;2.40;;;2.20;;
12719;SDS011;6424;48.520;11.228;2023-05-10T03:08:43;2.13;;;1.93;;
12719;SDS011;6424;48.520;11.228;2023-05-10T03:14:32;2.17;;;2.07;;
12719;SDS011;6424;48.520;11.228;2023-05-10T03:17:34;2.10;;;1.90;;
12719;SDS011;6424;48.520;11.228;2023-05-10T03:20:26;3.30;;;1.63;;
12719;SDS011;6424;48.520;11.228;2023-05-10T03:25:58;1.80;;;1.70;;
12719;SDS011;6424;48.520;11.228;2023-05-10T03:28:40;2.43;;;1.53;;
12719;SDS011;6424;48.520;11.228;2023-05-10T03:31:22;1.50;;;1.40;;
12719;SDS011;6424;48.520;11.228;2023-05-10T03:34:02;1.50;;;1.40;;
12719;SDS011;6424;48.520;11.228;2023-05-10T03:36:43;2.37;;;1.47;;
12719;SDS011;6424;48.520;11.228;2023-05-10T03:39:24;1.73;;;1.60;;
12719;SDS011;6424;48.520;11.228;2023-05-10T03:41:50;1.40;;;1.30;;
12719;SDS011;6424;48.520;11.228;2023-05-10T03:44:30;1.30;;;1.20;;
12719;SDS011;6424;48.520;11.228;2023-05-10T03:47:13;3.87;;;1.27;;
12719;SDS011;6424;48.520;11.228;2023-05-10T03:49:54;1.10;;;1.00;;
12719;SDS011;6424;48.520;11.228;2023-05-10T03:52:35;1.70;;;1.40;;
12719;SDS011;6424;48.520;11.228;2023-05-10T03:55:15;1.10;;;0.90;;
12719;SDS011;6424;48.520;11.228;2023-05-10T03:57:56;0.80;;;0.80;;
12719;SDS011;6424;48.520;11.228;2023-05-10T04:00:37;2.03;;;1.13;;
12719;SDS011;6424;48.520;11.228;2023-05-10T04:03:23;1.20;;;1.10;;
12719;SDS011;6424;48.520;11.228;2023-05-10T04:06:05;0.80;;;0.80;;
12719;SDS011;6424;48.520;11.228;2023-05-10T04:08:33;0.83;;;0.83;;
12719;SDS011;6424;48.520;11.228;2023-05-10T04:11:14;1.13;;;1.03;;
12719;SDS011;6424;48.520;11.228;2023-05-10T04:13:55;0.70;;;0.70;;
12719;SDS011;6424;48.520;11.228;2023-05-10T04:16:36;0.80;;;0.80;;
12719;SDS011;6424;48.520;11.228;2023-05-10T04:19:17;0.70;;;0.70;;
12719;SDS011;6424;48.520;11.228;2023-05-10T04:21:58;0.73;;;0.73;;
12719;SDS011;6424;48.520;11.228;2023-05-10T04:24:39;0.90;;;0.70;;
12719;SDS011;6424;48.520;11.228;2023-05-10T04:27:19;0.70;;;0.60;;
12719;SDS011;6424;48.520;11.228;2023-05-10T04:30:00;0.53;;;0.53;;
12719;SDS011;6424;48.520;11.228;2023-05-10T04:32:42;0.73;;;0.70;;
12719;SDS011;6424;48.520;11.228;2023-05-10T04:35:22;3.13;;;0.50;;
12719;SDS011;6424;48.520;11.228;2023-05-10T04:38:03;0.60;;;0.60;;
12719;SDS011;6424;48.520;11.228;2023-05-10T04:40:44;0.50;;;0.50;;
12719;SDS011;6424;48.520;11.228;2023-05-10T04:43:25;0.70;;;0.60;;
12719;SDS011;6424;48.520;11.228;2023-05-10T04:46:06;0.83;;;0.60;;
12719;SDS011;6424;48.520;11.228;2023-05-10T04:48:49;0.70;;;0.50;;
12719;SDS011;6424;48.520;11.228;2023-05-10T04:51:30;0.50;;;0.50;;
12719;SDS011;6424;48.520;11.228;2023-05-10T04:54:11;0.40;;;0.40;;
12719;SDS011;6424;48.520;11.228;2023-05-10T04:56:52;0.40;;;0.40;;
12719;SDS011;6424;48.520;11.228;2023-05-10T04:59:35;1.63;;;0.40;;
12719;SDS011;6424;48.520;11.228;2023-05-10T05:02:16;2.63;;;0.67;;
12719;SDS011;6424;48.520;11.228;2023-05-10T05:04:57;0.63;;;0.63;;
12719;SDS011;6424;48.520;11.228;2023-05-10T05:07:38;0.50;;;0.50;;
12719;SDS011;6424;48.520;11.228;2023-05-10T05:10:19;0.60;;;0.60;;
12719;SDS011;6424;48.520;11.228;2023-05-10T05:12:59;0.60;;;0.60;;
12719;SDS011;6424;48.520;11.228;2023-05-10T05:15:40;1.20;;;0.87;;
12719;SDS011;6424;48.520;11.228;2023-05-10T05:18:21;1.77;;;0.80;;
12719;SDS011;6424;48.520;11.228;2023-05-10T05:21:02;1.30;;;0.73;;
12719;SDS011;6424;48.520;11.228;2023-05-10T05:23:43;0.70;;;0.70;;
12719;SDS011;6424;48.520;11.228;2023-05-10T05:26:24;0.67;;;0.60;;
12719;SDS011;6424;48.520;11.228;2023-05-10T05:29:04;1.53;;;0.90;;
12719;SDS011;6424;48.520;11.228;2023-05-10T05:31:45;1.93;;;0.90;;
12719;SDS011;6424;48.520;11.228;2023-05-10T05:34:26;0.80;;;0.70;;
12719;SDS011;6424;48.520;11.228;2023-05-10T05:36:52;1.23;;;0.87;;
12719;SDS011;6424;48.520;11.228;2023-05-10T05:39:32;0.50;;;0.50;;
12719;SDS011;6424;48.520;11.228;2023-05-10T05:42:15;1.20;;;0.90;;
12719;SDS011;6424;48.520;11.228;2023-05-10T05:44:58;0.80;;;0.80;;
12719;SDS011;6424;48.520;11.228;2023-05-10T05:47:39;2.23;;;0.83;;
12719;SDS011;6424;48.520;11.228;2023-05-10T05:50:20;0.70;;;0.70;;
12719;SDS011;6424;48.520;11.228;2023-05-10T05:53:01;3.17;;;1.10;;
12719;SDS011;6424;48.520;11.228;2023-05-10T05:55:52;1.60;;;0.90;;
12719;SDS011;6424;48.520;11.228;2023-05-10T05:58:37;1.20;;;1.00;;
12719;SDS011;6424;48.520;11.228;2023-05-10T06:01:17;0.97;;;0.90;;
12719;SDS011;6424;48.520;11.228;2023-05-10T06:03:58;1.03;;;0.73;;
12719;SDS011;6424;48.520;11.228;2023-05-10T06:06:39;1.13;;;1.07;;
12719;SDS011;6424;48.520;11.228;2023-05-10T06:09:20;1.37;;;1.10;;
12719;SDS011;6424;48.520;11.228;2023-05-10T06:12:01;1.40;;;1.00;;
12719;SDS011;6424;48.520;11.228;2023-05-10T06:14:41;1.10;;;1.00;;
12719;SDS011;6424;48.520;11.228;2023-05-10T06:17:22;1.20;;;0.90;;
12719;SDS011;6424;48.520;11.228;2023-05-10T06:20:04;1.13;;;0.83;;
12719;SDS011;6424;48.520;11.228;2023-05-10T06:22:46;1.53;;;1.13;;
12719;SDS011;6424;48.520;11.228;2023-05-10T06:25:26;1.37;;;1.00;;
12719;SDS011;6424;48.520;11.228;2023-05-10T06:28:07;2.40;;;1.20;;
12719;SDS011;6424;48.520;11.228;2023-05-10T06:30:48;5.23;;;1.27;;
12719;SDS011;6424;48.520;11.228;2023-05-10T06:33:29;0.90;;;0.90;;
12719;SDS011;6424;48.520;11.228;2023-05-10T06:36:10;1.20;;;1.10;;
12719;SDS011;6424;48.520;11.228;2023-05-10T06:38:51;1.20;;;1.10;;
12719;SDS011;6424;48.520;11.228;2023-05-10T06:41:31;1.67;;;1.23;;
12719;SDS011;6424;48.520;11.228;2023-05-10T06:44:12;2.63;;;1.40;;
12719;SDS011;6424;48.520;11.228;2023-05-10T06:46:53;2.90;;;1.07;;
12719;SDS011;6424;48.520;11.228;2023-05-10T06:49:21;1.30;;;1.17;;
12719;SDS011;6424;48.520;11.228;2023-05-10T06:52:02;1.23;;;1.13;;
12719;SDS011;6424;48.520;11.228;2023-05-10T06:54:42;6.17;;;1.33;;
12719;SDS011;6424;48.520;11.228;2023-05-10T06:57:24;1.33;;;1.23;;
12719;SDS011;6424;48.520;11.228;2023-05-10T07:00:05;2.80;;;1.40;;
12719;SDS011;6424;48.520;11.228;2023-05-10T07:02:46;1.47;;;1.10;;
12719;SDS011;6424;48.520;11.228;2023-05-10T07:05:27;1.40;;;1.30;;
12719;SDS011;6424;48.520;11.228;2023-05-10T07:08:09;1.77;;;1.40;;
12719;SDS011;6424;48.520;11.228;2023-05-10T07:10:50;1.30;;;1.20;;
12719;SDS011;6424;48.520;11.228;2023-05-10T07:13:31;1.00;;;1.00;;
12719;SDS011;6424;48.520;11.228;2023-05-10T07:15:57;1.67;;;1.00;;
12719;SDS011;6424;48.520;11.228;2023-05-10T07:18:24;1.43;;;1.20;;
12719;SDS011;6424;48.520;11.228;2023-05-10T07:21:05;2.73;;;1.10;;
12719;SDS011;6424;48.520;11.228;2023-05-10T07:23:46;3.03;;;0.90;;
12719;SDS011;6424;48.520;11.228;2023-05-10T07:26:27;1.50;;;1.20;;
12719;SDS011;6424;48.520;11.228;2023-05-10T07:29:08;1.30;;;1.20;;
12719;SDS011;6424;48.520;11.228;2023-05-10T07:31:50;1.83;;;1.00;;
12719;SDS011;6424;48.520;11.228;2023-05-10T07:34:30;1.63;;;1.30;;
12719;SDS011;6424;48.520;11.228;2023-05-10T07:37:11;2.80;;;1.27;;
12719;SDS011;6424;48.520;11.228;2023-05-10T07:39:52;1.10;;;1.00;;
12719;SDS011;6424;48.520;11.228;2023-05-10T07:42:18;1.20;;;1.10;;
12719;SDS011;6424;48.520;11.228;2023-05-10T07:44:59;3.40;;;1.33;;
12719;SDS011;6424;48.520;11.228;2023-05-10T07:47:39;1.33;;;1.10;;
12719;SDS011;6424;48.520;11.228;2023-05-10T07:50:20;1.27;;;1.00;;
12719;SDS011;6424;48.520;11.228;2023-05-10T07:52:46;1.87;;;1.10;;
12719;SDS011;6424;48.520;11.228;2023-05-10T07:55:28;1.00;;;0.90;;
12719;SDS011;6424;48.520;11.228;2023-05-10T07:58:08;2.90;;;1.40;;
12719;SDS011;6424;48.520;11.228;2023-05-10T08:00:34;2.03;;;1.00;;
12719;SDS011;6424;48.520;11.228;2023-05-10T08:03:15;1.10;;;1.00;;
12719;SDS011;6424;48.520;11.228;2023-05-10T08:05:56;1.20;;;1.10;;
12719;SDS011;6424;48.520;11.228;2023-05-10T08:08:37;1.00;;;0.80;;
12719;SDS011;6424;48.520;11.228;2023-05-10T08:11:18;0.80;;;0.80;;
12719;SDS011;6424;48.520;11.228;2023-05-10T08:13:59;3.13;;;1.03;;
12719;SDS011;6424;48.520;11.228;2023-05-10T08:16:25;1.80;;;1.10;;
12719;SDS011;6424;48.520;11.228;2023-05-10T08:19:06;3.30;;;1.10;;
12719;SDS011;6424;48.520;11.228;2023-05-10T08:21:47;2.00;;;0.97;;
12719;SDS011;6424;48.520;11.228;2023-05-10T08:24:28;1.10;;;1.00;;
12719;SDS011;6424;48.520;11.228;2023-05-10T08:27:09;1.87;;;0.90;;
12719;SDS011;6424;48.520;11.228;2023-05-10T08:29:49;1.60;;;1.00;;
12719;SDS011;6424;48.520;11.228;2023-05-10T08:32:30;1.43;;;0.90;;
12719;SDS011;6424;48.520;11.228;2023-05-10T08:35:11;1.50;;;0.90;;
12719;SDS011;6424;48.520;11.228;2023-05-10T08:37:37;1.23;;;1.13;;
12719;SDS011;6424;48.520;11.228;2023-05-10T08:40:18;0.90;;;0.90;;
12719;SDS011;6424;48.520;11.228;2023-05-10T08:42:55;1.30;;;1.00;;
12719;SDS011;6424;48.520;11.228;2023-05-10T08:45:46;1.13;;;1.00;;
12719;SDS011;6424;48.520;11.228;2023-05-10T08:48:27;2.10;;;1.10;;
12719;SDS011;6424;48.520;11.228;2023-05-10T08:51:10;1.33;;;1.17;;
12719;SDS011;6424;48.520;11.228;2023-05-10T08:53:38;1.20;;;1.10;;
12719;SDS011;6424;48.520;11.228;2023-05-10T08:56:19;1.57;;;0.90;;
12719;SDS011;6424;48.520;11.228;2023-05-10T08:58:45;3.97;;;1.27;;
12719;SDS011;6424;48.520;11.228;2023-05-10T09:01:27;1.63;;;0.90;;
12719;SDS011;6424;48.520;11.228;2023-05-10T09:04:08;1.40;;;1.00;;
12719;SDS011;6424;48.520;11.228;2023-05-10T09:06:49;1.37;;;0.90;;
12719;SDS011;6424;48.520;11.228;2023-05-10T09:09:29;2.47;;;1.20;;
12719;SDS011;6424;48.520;11.228;2023-05-10T09:12:11;1.90;;;1.20;;
12719;SDS011;6424;48.520;11.228;2023-05-10T09:14:55;1.20;;;1.10;;
12719;SDS011;6424;48.520;11.228;2023-05-10T09:17:41;2.00;;;1.03;;
12719;SDS011;6424;48.520;11.228;2023-05-10T09:20:24;1.33;;;0.90;;
12719;SDS011;6424;48.520;11.228;2023-05-10T09:23:04;2.23;;;0.90;;
12719;SDS011;6424;48.520;11.228;2023-05-10T09:25:45;2.83;;;1.00;;
12719;SDS011;6424;48.520;11.228;2023-05-10T09:28:27;1.80;;;0.90;;
12719;SDS011;6424;48.520;11.228;2023-05-10T09:31:11;1.67;;;0.80;;
12719;SDS011;6424;48.520;11.228;2023-05-10T09:33:52;3.20;;;1.03;;
12719;SDS011;6424;48.520;11.228;2023-05-10T09:36:33;8.00;;;5.50;;
12719;SDS011;6424;48.520;11.228;2023-05-10T09:39:14;3.07;;;1.97;;
12719;SDS011;6424;48.520;11.228;2023-05-10T09:41:54;2.77;;;0.90;;
12719;SDS011;6424;48.520;11.228;2023-05-10T09:44:35;0.87;;;0.83;;
12719;SDS011;6424;48.520;11.228;2023-05-10T09:47:18;2.13;;;0.70;;
12719;SDS011;6424;48.520;11.228;2023-05-10T09:50:02;2.70;;;0.90;;
12719;SDS011;6424;48.520;11.228;2023-05-10T09:55:38;2.50;;;0.83;;
12719;SDS011;6424;48.520;11.228;2023-05-10T09:58:20;1.23;;;0.90;;
12719;SDS011;6424;48.520;11.228;2023-05-10T10:01:01;0.90;;;0.70;;
12719;SDS011;6424;48.520;11.228;2023-05-10T10:03:42;1.67;;;0.93;;
12719;SDS011;6424;48.520;11.228;2023-05-10T10:06:23;1.70;;;1.00;;
12719;SDS011;6424;48.520;11.228;2023-05-10T10:09:08;5.80;;;3.33;;
12719;SDS011;6424;48.520;11.228;2023-05-10T10:11:37;4.87;;;3.07;;
12719;SDS011;6424;48.520;11.228;2023-05-10T10:14:18;12.83;;;7.50;;
12719;SDS011;6424;48.520;11.228;2023-05-10T10:17:00;12.87;;;6.90;;
12719;SDS011;6424;48.520;11.228;2023-05-10T10:19:26;3.00;;;1.60;;
12719;SDS011;6424;48.520;11.228;2023-05-10T10:22:07;2.47;;;1.87;;
12719;SDS011;6424;48.520;11.228;2023-05-10T10:24:48;3.50;;;1.30;;
12719;SDS011;6424;48.520;11.228;2023-05-10T10:30:37;1.37;;;1.07;;
12719;SDS011;6424;48.520;11.228;2023-05-10T10:36:40;2.10;;;1.07;;
12719;SDS011;6424;48.520;11.228;2023-05-10T10:39:26;2.10;;;1.47;;
12719;SDS011;6424;48.520;11.228;2023-05-10T10:42:07;3.23;;;1.10;;
12719;SDS011;6424;48.520;11.228;2023-05-10T10:44:47;2.73;;;1.07;;
12719;SDS011;6424;48.520;11.228;2023-05-10T10:47:28;3.23;;;1.10;;
12719;SDS011;6424;48.520;11.228;2023-05-10T10:50:13;2.20;;;1.27;;
12719;SDS011;6424;48.520;11.228;2023-05-10T10:52:56;1.20;;;1.00;;
12719;SDS011;6424;48.520;11.228;2023-05-10T10:55:53;1.20;;;0.93;;
12719;SDS011;6424;48.520;11.228;2023-05-10T10:58:49;2.07;;;0.97;;
12719;SDS011;6424;48.520;11.228;2023-05-10T11:01:33;5.10;;;1.13;;
12719;SDS011;6424;48.520;11.228;2023-05-10T11:04:18;1.50;;;0.97;;
12719;SDS011;6424;48.520;11.228;2023-05-10T11:10:12;1.83;;;0.70;;
12719;SDS011;6424;48.520;11.228;2023-05-10T11:15:48;1.40;;;0.80;;
12719;SDS011;6424;48.520;11.228;2023-05-10T11:18:30;2.13;;;0.90;;
12719;SDS011;6424;48.520;11.228;2023-05-10T11:21:11;1.43;;;0.70;;
12719;SDS011;6424;48.520;11.228;2023-05-10T11:23:53;1.77;;;0.90;;
12719;SDS011;6424;48.520;11.228;2023-05-10T11:26:36;1.27;;;0.70;;
12719;SDS011;6424;48.520;11.228;2023-05-10T11:29:17;0.80;;;0.80;;
12719;SDS011;6424;48.520;11.228;2023-05-10T11:31:59;1.63;;;1.10;;
12719;SDS011;6424;48.520;11.228;2023-05-10T11:34:40;2.60;;;1.87;;
12719;SDS011;6424;48.520;11.228;2023-05-10T11:37:20;18.30;;;9.17;;
12719;SDS011;6424;48.520;11.228;2023-05-10T11:40:01;41.60;;;20.37;;
12719;SDS011;6424;48.520;11.228;2023-05-10T11:42:43;50.37;;;26.10;;
12719;SDS011;6424;48.520;11.228;2023-05-10T11:45:10;5.67;;;3.90;;
12719;SDS011;6424;48.520;11.228;2023-05-10T11:47:51;1.60;;;1.23;;
12719;SDS011;6424;48.520;11.228;2023-05-10T11:50:32;2.27;;;2.03;;
12719;SDS011;6424;48.520;11.228;2023-05-10T11:53:13;2.00;;;1.63;;
12719;SDS011;6424;48.520;11.228;2023-05-10T11:55:53;1.63;;;1.33;;
12719;SDS011;6424;48.520;11.228;2023-05-10T11:58:35;2.67;;;2.20;;
12719;SDS011;6424;48.520;11.228;2023-05-10T12:01:17;2.60;;;1.40;;
12719;SDS011;6424;48.520;11.228;2023-05-10T12:03:58;2.90;;;1.37;;
12719;SDS011;6424;48.520;11.228;2023-05-10T12:06:40;4.50;;;1.57;;
12719;SDS011;6424;48.520;11.228;2023-05-10T12:09:21;2.00;;;1.10;;
12719;SDS011;6424;48.520;11.228;2023-05-10T12:12:02;2.53;;;1.17;;
12719;SDS011;6424;48.520;11.228;2023-05-10T12:14:43;2.47;;;1.10;;
12719;SDS011;6424;48.520;11.228;2023-05-10T12:17:27;1.27;;;1.17;;
12719;SDS011;6424;48.520;11.228;2023-05-10T12:20:18;1.67;;;1.40;;
12719;SDS011;6424;48.520;11.228;2023-05-10T12:23:00;1.53;;;1.07;;
12719;SDS011;6424;48.520;11.228;2023-05-10T12:25:43;1.60;;;1.40;;
12719;SDS011;6424;48.520;11.228;2023-05-10T12:28:10;1.87;;;1.47;;
12719;SDS011;6424;48.520;11.228;2023-05-10T12:30:52;2.13;;;1.60;;
12719;SDS011;6424;48.520;11.228;2023-05-10T12:36:23;2.50;;;1.30;;
12719;SDS011;6424;48.520;11.228;2023-05-10T12:39:04;1.93;;;1.50;;
12719;SDS011;6424;48.520;11.228;2023-05-10T12:41:45;1.93;;;1.53;;
12719;SDS011;6424;48.520;11.228;2023-05-10T12:44:25;1.37;;;1.23;;
12719;SDS011;6424;48.520;11.228;2023-05-10T12:47:06;4.13;;;1.40;;
12719;SDS011;6424;48.520;11.228;2023-05-10T12:49:48;6.40;;;4.83;;
12719;SDS011;6424;48.520;11.228;2023-05-10T12:52:28;2.20;;;2.00;;
12719;SDS011;6424;48.520;11.228;2023-05-10T12:55:10;2.90;;;1.70;;
12719;SDS011;6424;48.520;11.228;2023-05-10T12:57:50;3.07;;;1.63;;
12719;SDS011;6424;48.520;11.228;2023-05-10T13:00:31;2.33;;;1.10;;
12719;SDS011;6424;48.520;11.228;2023-05-10T13:03:12;0.87;;;0.83;;
12719;SDS011;6424;48.520;11.228;2023-05-10T13:05:53;1.30;;;1.00;;
12719;SDS011;6424;48.520;11.228;2023-05-10T13:08:34;0.93;;;0.70;;
12719;SDS011;6424;48.520;11.228;2023-05-10T13:11:15;1.33;;;0.70;;
12719;SDS011;6424;48.520;11.228;2023-05-10T13:13:57;0.80;;;0.77;;
12719;SDS011;6424;48.520;11.228;2023-05-10T13:16:23;2.63;;;1.37;;
12719;SDS011;6424;48.520;11.228;2023-05-10T13:19:03;1.40;;;1.20;;
12719;SDS011;6424;48.520;11.228;2023-05-10T13:21:44;0.80;;;0.80;;
12719;SDS011;6424;48.520;11.228;2023-05-10T13:24:25;0.77;;;0.70;;
12719;SDS011;6424;48.520;11.228;2023-05-10T13:27:06;1.27;;;0.80;;
12719;SDS011;6424;48.520;11.228;2023-05-10T13:29:47;1.23;;;1.10;;
12719;SDS011;6424;48.520;11.228;2023-05-10T13:32:28;1.20;;;1.00;;
12719;SDS011;6424;48.520;11.228;2023-05-10T13:35:09;1.10;;;1.00;;
12719;SDS011;6424;48.520;11.228;2023-05-10T13:37:49;2.27;;;1.10;;
12719;SDS011;6424;48.520;11.228;2023-05-10T13:40:30;2.10;;;0.77;;
12719;SDS011;6424;48.520;11.228;2023-05-10T13:43:11;2.57;;;0.90;;
12719;SDS011;6424;48.520;11.228;2023-05-10T13:45:52;1.77;;;0.90;;
12719;SDS011;6424;48.520;11.228;2023-05-10T13:48:34;1.47;;;0.90;;
12719;SDS011;6424;48.520;11.228;2023-05-10T13:51:01;1.03;;;0.90;;
12719;SDS011;6424;48.520;11.228;2023-05-10T13:53:42;0.90;;;0.80;;
12719;SDS011;6424;48.520;11.228;2023-05-10T13:56:23;2.00;;;0.70;;
12719;SDS011;6424;48.520;11.228;2023-05-10T13:59:04;1.87;;;0.80;;
12719;SDS011;6424;48.520;11.228;2023-05-10T14:01:45;0.87;;;0.80;;
12719;SDS011;6424;48.520;11.228;2023-05-10T14:04:25;0.63;;;0.60;;
12719;SDS011;6424;48.520;11.228;2023-05-10T14:07:06;1.23;;;0.80;;
12719;SDS011;6424;48.520;11.228;2023-05-10T14:09:47;1.27;;;0.90;;
12719;SDS011;6424;48.520;11.228;2023-05-10T14:12:28;1.03;;;0.93;;
12719;SDS011;6424;48.520;11.228;2023-05-10T14:15:09;1.37;;;1.00;;
12719;SDS011;6424;48.520;11.228;2023-05-10T14:17:36;1.00;;;0.90;;
12719;SDS011;6424;48.520;11.228;2023-05-10T14:20:17;2.50;;;1.07;;
12719;SDS011;6424;48.520;11.228;2023-05-10T14:22:58;1.70;;;1.30;;
12719;SDS011;6424;48.520;11.228;2023-05-10T14:25:24;2.50;;;1.00;;
12719;SDS011;6424;48.520;11.228;2023-05-10T14:28:05;2.17;;;1.33;;
12719;SDS011;6424;48.520;11.228;2023-05-10T14:30:46;1.63;;;1.40;;
12719;SDS011;6424;48.520;11.228;2023-05-10T14:33:27;1.93;;;1.30;;
12719;SDS011;6424;48.520;11.228;2023-05-10T14:36:08;1.80;;;1.50;;
12719;SDS011;6424;48.520;11.228;2023-05-10T14:38:49;1.67;;;1.33;;
12719;SDS011;6424;48.520;11.228;2023-05-10T14:41:30;2.17;;;1.23;;
12719;SDS011;6424;48.520;11.228;2023-05-10T14:44:11;1.67;;;1.37;;
12719;SDS011;6424;48.520;11.228;2023-05-10T14:46:52;1.57;;;1.30;;
12719;SDS011;6424;48.520;11.228;2023-05-10T14:49:32;1.53;;;1.17;;
12719;SDS011;6424;48.520;11.228;2023-05-10T14:52:13;1.87;;;1.30;;
12719;SDS011;6424;48.520;11.228;2023-05-10T14:54:39;1.60;;;1.50;;
12719;SDS011;6424;48.520;11.228;2023-05-10T14:57:06;1.60;;;1.50;;
12719;SDS011;6424;48.520;11.228;2023-05-10T14:59:47;1.73;;;1.60;;
12719;SDS011;6424;48.520;11.228;2023-05-10T15:02:28;2.43;;;1.70;;
12719;SDS011;6424;48.520;11.228;2023-05-10T15:05:08;1.53;;;1.33;;
12719;SDS011;6424;48.520;11.228;2023-05-10T15:07:49;9.33;;;7.30;;
12719;SDS011;6424;48.520;11.228;2023-05-10T15:10:30;13.23;;;9.77;;
12719;SDS011;6424;48.520;11.228;2023-05-10T15:13:12;7.83;;;6.47;;
12719;SDS011;6424;48.520;11.228;2023-05-10T15:15:53;4.63;;;3.50;;
12719;SDS011;6424;48.520;11.228;2023-05-10T15:18:33;5.33;;;4.23;;
12719;SDS011;6424;48.520;11.228;2023-05-10T15:21:14;6.47;;;4.57;;
12719;SDS011;6424;48.520;11.228;2023-05-10T15:23:55;13.20;;;9.10;;
12719;SDS011;6424;48.520;11.228;2023-05-10T15:26:36;1.83;;;1.40;;
12719;SDS011;6424;48.520;11.228;2023-05-10T15:29:17;1.47;;;0.80;;
12719;SDS011;6424;48.520;11.228;2023-05-10T15:31:59;1.87;;;0.80;;
12719;SDS011;6424;48.520;11.228;2023-05-10T15:34:41;1.70;;;0.70;;
12719;SDS011;6424;48.520;11.228;2023-05-10T15:37:07;1.33;;;0.80;;
12719;SDS011;6424;48.520;11.228;2023-05-10T15:39:48;6.00;;;1.27;;
12719;SDS011;6424;48.520;11.228;2023-05-10T15:42:29;1.47;;;1.00;;
12719;SDS011;6424;48.520;11.228;2023-05-10T15:45:11;2.57;;;1.40;;
12719;SDS011;6424;48.520;11.228;2023-05-10T15:47:52;1.43;;;1.07;;
12719;SDS011;6424;48.520;11.228;2023-05-10T15:50:33;2.10;;;1.63;;
12719;SDS011;6424;48.520;11.228;2023-05-10T15:53:14;1.10;;;1.00;;
12719;SDS011;6424;48.520;11.228;2023-05-10T15:55:55;2.50;;;1.30;;
12719;SDS011;6424;48.520;11.228;2023-05-10T15:58:37;3.30;;;1.60;;
12719;SDS011;6424;48.520;11.228;2023-05-10T16:01:18;5.03;;;4.27;;
12719;SDS011;6424;48.520;11.228;2023-05-10T16:03:59;3.50;;;2.27;;
12719;SDS011;6424;48.520;11.228;2023-05-10T16:06:26;1.60;;;1.50;;
12719;SDS011;6424;48.520;11.228;2023-05-10T16:09:06;1.60;;;1.50;;
12719;SDS011;6424;48.520;11.228;2023-05-10T16:11:47;2.87;;;1.10;;
12719;SDS011;6424;48.520;11.228;2023-05-10T16:14:28;2.53;;;1.70;;
12719;SDS011;6424;48.520;11.228;2023-05-10T16:17:09;2.20;;;1.70;;
12719;SDS011;6424;48.520;11.228;2023-05-10T16:19:35;1.90;;;0.90;;
12719;SDS011;6424;48.520;11.228;2023-05-10T16:22:16;1.70;;;1.13;;
12719;SDS011;6424;48.520;11.228;2023-05-10T16:24:57;3.97;;;2.70;;
12719;SDS011;6424;48.520;11.228;2023-05-10T16:27:38;3.63;;;1.57;;
12719;SDS011;6424;48.520;11.228;2023-05-10T16:30:19;7.60;;;5.07;;
12719;SDS011;6424;48.520;11.228;2023-05-10T16:33:00;5.50;;;3.23;;
12719;SDS011;6424;48.520;11.228;2023-05-10T16:35:41;1.33;;;1.23;;
12719;SDS011;6424;48.520;11.228;2023-05-10T16:38:23;6.30;;;3.77;;
12719;SDS011;6424;48.520;11.228;2023-05-10T16:41:04;1.40;;;1.30;;
12719;SDS011;6424;48.520;11.228;2023-05-10T16:43:33;1.23;;;1.00;;